createdAt,value
2022-12-04T00:01:07.725Z,31.30
2022-12-04T00:03:34.981Z,29.40
2022-12-04T00:06:14.217Z,29.90
2022-12-04T00:08:41.813Z,34.90
2022-12-04T00:11:10.367Z,35.50
2022-12-04T00:13:38.414Z,37.38
2022-12-04T00:16:07.200Z,30.33
2022-12-04T00:18:35.246Z,31.00
2022-12-04T00:21:10.713Z,32.40
2022-12-04T00:23:38.874Z,35.28
2022-12-04T00:26:27.480Z,37.58
2022-12-04T00:28:56.046Z,37.90
2022-12-04T00:31:28.093Z,38.40
2022-12-04T00:33:55.270Z,38.47
2022-12-04T00:36:24.553Z,44.00
2022-12-04T00:38:52.235Z,44.65
2022-12-04T00:41:22.092Z,53.63
2022-12-04T00:43:49.179Z,55.67
2022-12-04T00:46:17.359Z,39.83
2022-12-04T00:48:44.875Z,43.70
2022-12-04T00:51:18.144Z,43.65
2022-12-04T00:53:46.071Z,45.97
2022-12-04T00:56:19.880Z,43.30
2022-12-04T00:58:47.571Z,40.67
2022-12-04T01:01:18.408Z,48.58
2022-12-04T01:03:46.121Z,31.40
2022-12-04T01:06:39.046Z,32.67
2022-12-04T01:09:06.503Z,18.73
2022-12-04T01:11:34.123Z,16.60
2022-12-04T01:14:01.674Z,22.67
2022-12-04T01:16:32.245Z,23.42
2022-12-04T01:19:00.077Z,16.45
2022-12-04T01:21:27.135Z,18.45
2022-12-04T01:23:54.206Z,13.65
2022-12-04T01:26:21.320Z,14.38
2022-12-04T01:28:48.414Z,13.02
2022-12-04T01:31:19.262Z,15.70
2022-12-04T01:33:47.480Z,17.10
2022-12-04T01:36:17.724Z,14.43
2022-12-04T01:38:45.546Z,15.07
2022-12-04T01:41:14.738Z,12.25
2022-12-04T01:43:42.518Z,17.25
2022-12-04T01:46:10.814Z,11.27
2022-12-04T01:48:46.183Z,13.98
2022-12-04T01:51:34.254Z,10.07
2022-12-04T01:54:05.588Z,9.23
2022-12-04T01:56:38.467Z,11.35
2022-12-04T01:59:08.232Z,11.15
2022-12-04T02:01:42.936Z,10.70
2022-12-04T02:04:10.496Z,11.15
2022-12-04T02:06:37.796Z,11.15
2022-12-04T02:09:05.060Z,10.25
2022-12-04T02:12:03.533Z,9.98
2022-12-04T02:14:39.840Z,13.95
2022-12-04T02:17:40.570Z,8.77
2022-12-04T02:20:32.620Z,11.35
2022-12-04T02:23:47.089Z,9.60
2022-12-04T02:26:48.717Z,8.23
2022-12-04T02:29:41.333Z,10.60
2022-12-04T02:32:41.195Z,14.80
2022-12-04T02:35:25.563Z,7.97
2022-12-04T02:37:58.279Z,9.60
2022-12-04T02:40:29.341Z,9.30
2022-12-04T02:43:08.519Z,10.43
2022-12-04T02:45:58.207Z,7.43
2022-12-04T02:48:27.575Z,7.28
2022-12-04T02:50:57.067Z,8.05
2022-12-04T02:53:37.577Z,10.48
2022-12-04T02:56:13.059Z,6.13
2022-12-04T02:58:49.360Z,7.00
2022-12-04T03:01:20.922Z,7.88
2022-12-04T03:04:01.052Z,9.57
2022-12-04T03:06:32.055Z,5.88
2022-12-04T03:09:22.099Z,8.00
2022-12-04T03:12:10.182Z,7.82
2022-12-04T03:14:42.658Z,10.93
2022-12-04T03:17:20.724Z,12.45
2022-12-04T03:19:52.055Z,8.48
2022-12-04T03:24:53.694Z,7.28
2022-12-04T03:27:39.222Z,4.75
2022-12-04T03:30:14.643Z,10.40
2022-12-04T03:33:00.817Z,9.55
2022-12-04T03:35:41.492Z,10.10
2022-12-04T03:38:17.871Z,9.50
2022-12-04T03:41:03.966Z,7.38
2022-12-04T03:43:46.674Z,10.40
2022-12-04T03:46:40.771Z,7.63
2022-12-04T03:49:47.107Z,10.27
2022-12-04T03:52:27.845Z,11.93
2022-12-04T03:55:11.451Z,14.07
2022-12-04T03:57:43.902Z,10.45
2022-12-04T04:00:15.984Z,11.65
2022-12-04T04:03:16.515Z,7.53
2022-12-04T04:05:48.758Z,5.35
2022-12-04T04:08:31.236Z,9.98
2022-12-04T04:11:28.589Z,7.40
2022-12-04T04:14:35.684Z,11.35
2022-12-04T04:17:26.521Z,7.78
2022-12-04T04:20:44.876Z,6.13
2022-12-04T04:23:30.789Z,8.98
2022-12-04T04:26:01.042Z,8.18
2022-12-04T04:28:37.165Z,9.02
2022-12-04T04:31:33.536Z,11.65
2022-12-04T04:35:05.046Z,14.95
2022-12-04T04:38:06.313Z,14.68
2022-12-04T04:41:08.741Z,11.65
2022-12-04T04:43:52.458Z,12.23
2022-12-04T04:46:31.623Z,11.95
2022-12-04T04:49:02.950Z,9.77
2022-12-04T04:51:33.511Z,11.45
2022-12-04T04:54:04.771Z,18.57
2022-12-04T04:56:31.930Z,12.45
2022-12-04T04:58:58.914Z,17.05
2022-12-04T05:01:28.544Z,10.07
2022-12-04T05:03:55.575Z,13.65
2022-12-04T05:06:22.625Z,9.02
2022-12-04T05:08:49.697Z,11.75
2022-12-04T05:11:17.768Z,10.93
2022-12-04T05:13:44.947Z,12.88
2022-12-04T05:16:13.919Z,13.88
2022-12-04T05:18:41.430Z,14.02
2022-12-04T05:21:16.078Z,12.30
2022-12-04T05:23:43.148Z,10.32
2022-12-04T05:26:10.227Z,15.57
2022-12-04T05:28:37.419Z,14.95
2022-12-04T05:31:04.605Z,15.25
2022-12-04T05:33:31.760Z,9.18
2022-12-04T05:36:07.959Z,12.85
2022-12-04T05:38:35.526Z,10.88
2022-12-04T05:41:04.279Z,10.63
2022-12-04T05:43:31.827Z,11.20
2022-12-04T05:46:07.116Z,10.75
2022-12-04T05:48:35.727Z,12.15
2022-12-04T05:51:10.287Z,11.10
2022-12-04T05:53:38.087Z,9.70
2022-12-04T05:56:06.409Z,11.50
2022-12-04T05:58:38.152Z,10.52
2022-12-04T06:01:17.624Z,10.43
2022-12-04T06:03:45.280Z,8.77
2022-12-04T06:06:22.438Z,11.15
2022-12-04T06:08:51.653Z,11.77
2022-12-04T06:11:22.614Z,9.65
2022-12-04T06:13:50.150Z,10.10
2022-12-04T06:16:29.162Z,11.63
2022-12-04T06:18:58.827Z,8.20
2022-12-04T06:21:27.965Z,7.78
2022-12-04T06:23:55.816Z,11.18
2022-12-04T06:26:24.466Z,11.05
2022-12-04T06:28:55.643Z,9.48
2022-12-04T06:31:23.766Z,9.32
2022-12-04T06:33:50.920Z,10.68
2022-12-04T06:36:19.935Z,14.57
2022-12-04T06:38:47.884Z,13.55
2022-12-04T06:41:17.144Z,9.52
2022-12-04T06:43:44.277Z,10.40
2022-12-04T06:46:14.067Z,12.98
2022-12-04T06:48:42.576Z,11.75
2022-12-04T06:51:21.100Z,11.73
2022-12-04T06:53:48.489Z,11.20
2022-12-04T06:56:19.301Z,10.02
2022-12-04T06:58:50.919Z,9.25
2022-12-04T07:01:21.532Z,10.15
2022-12-04T07:03:51.587Z,12.25
2022-12-04T07:06:25.494Z,13.48
2022-12-04T07:08:55.022Z,15.15
2022-12-04T07:11:22.844Z,14.10
2022-12-04T07:13:50.864Z,15.65
2022-12-04T07:16:19.994Z,16.05
2022-12-04T07:18:50.506Z,10.43
2022-12-04T07:21:19.453Z,10.60
2022-12-04T07:23:50.735Z,12.50
2022-12-04T07:26:18.605Z,15.32
2022-12-04T07:28:45.887Z,11.15
2022-12-04T07:31:15.813Z,10.60
2022-12-04T07:33:43.801Z,11.13
2022-12-04T07:36:15.045Z,12.05
2022-12-04T07:38:42.828Z,11.18
2022-12-04T07:41:12.720Z,14.73
2022-12-04T07:43:40.595Z,12.40
2022-12-04T07:46:33.745Z,14.77
2022-12-04T07:49:00.902Z,15.20
2022-12-04T07:51:29.589Z,19.15
2022-12-04T07:54:03.846Z,10.23
2022-12-04T07:56:32.364Z,9.68
2022-12-04T07:59:00.563Z,10.13
2022-12-04T08:01:27.852Z,9.02
2022-12-04T08:03:57.450Z,14.68
2022-12-04T08:06:26.236Z,13.63
2022-12-04T08:08:53.828Z,20.10
2022-12-04T08:11:25.589Z,16.05
2022-12-04T08:13:57.838Z,13.00
2022-12-04T08:16:26.109Z,12.18
2022-12-04T08:18:53.795Z,13.90
2022-12-04T08:21:24.099Z,19.42
2022-12-04T08:23:53.501Z,8.18
2022-12-04T08:26:22.189Z,10.48
2022-12-04T08:28:50.070Z,11.75
2022-12-04T08:31:21.065Z,11.07
2022-12-04T08:33:49.596Z,9.32
2022-12-04T08:36:19.575Z,15.07
2022-12-04T08:38:47.704Z,19.38
2022-12-04T08:41:17.693Z,13.43
2022-12-04T08:43:45.051Z,13.70
2022-12-04T08:46:14.581Z,25.00
2022-12-04T08:48:42.032Z,17.42
2022-12-04T08:51:14.777Z,14.73
2022-12-04T08:53:41.834Z,9.85
2022-12-04T08:56:08.951Z,7.20
2022-12-04T08:58:36.329Z,12.05
2022-12-04T09:01:11.867Z,12.32
2022-12-04T09:03:39.861Z,9.20
2022-12-04T09:06:08.448Z,13.98
2022-12-04T09:08:36.230Z,25.45
2022-12-04T09:11:19.317Z,7.93
2022-12-04T09:13:46.796Z,12.68
2022-12-04T09:16:17.313Z,28.08
2022-12-04T09:18:44.911Z,12.35
2022-12-04T09:21:14.974Z,21.73
2022-12-04T09:23:43.254Z,14.82
2022-12-04T09:26:36.422Z,12.02
2022-12-04T09:29:06.200Z,34.03
2022-12-04T09:31:34.080Z,14.18
2022-12-04T09:34:02.599Z,12.27
2022-12-04T09:36:30.120Z,19.95
2022-12-04T09:38:58.064Z,25.95
2022-12-04T09:42:02.912Z,10.75
2022-12-04T09:44:39.621Z,9.10
2022-12-04T09:47:36.428Z,14.77
2022-12-04T09:50:43.330Z,8.52
2022-12-04T09:53:23.189Z,17.65
2022-12-04T09:56:05.850Z,16.92
2022-12-04T09:59:13.094Z,9.35
2022-12-04T10:01:56.611Z,21.80
2022-12-04T10:04:23.831Z,9.88
2022-12-04T10:07:14.922Z,17.15
2022-12-04T10:10:26.728Z,17.55
2022-12-04T10:16:12.200Z,24.38
2022-12-04T10:19:25.373Z,16.75
2022-12-04T10:22:24.242Z,12.27
2022-12-04T10:24:59.320Z,25.63
2022-12-04T10:27:34.103Z,13.48
2022-12-04T10:30:26.863Z,16.23
2022-12-04T10:33:00.365Z,25.25
2022-12-04T10:35:31.473Z,8.32
2022-12-04T10:38:31.848Z,15.18
2022-12-04T10:41:28.859Z,11.15
2022-12-04T10:43:57.084Z,20.85
2022-12-04T10:46:28.103Z,16.38
2022-12-04T10:49:01.670Z,14.02
2022-12-04T10:51:38.648Z,8.95
2022-12-04T10:54:48.808Z,9.07
2022-12-04T10:57:17.074Z,17.63
2022-12-04T10:59:56.880Z,10.10
2022-12-04T11:02:34.271Z,18.90
2022-12-04T11:05:05.326Z,8.73
2022-12-04T11:07:37.274Z,10.52
2022-12-04T11:10:22.978Z,15.65
2022-12-04T11:13:18.890Z,13.93
2022-12-04T11:15:49.879Z,12.10
2022-12-04T11:18:35.708Z,12.48
2022-12-04T11:21:07.652Z,10.52
2022-12-04T11:23:48.316Z,11.43
2022-12-04T11:26:18.094Z,12.95
2022-12-04T11:28:51.319Z,20.38
2022-12-04T11:31:21.757Z,16.38
2022-12-04T11:34:02.582Z,15.77
2022-12-04T11:36:41.660Z,15.07
2022-12-04T11:39:35.047Z,31.10
2022-12-04T11:42:27.069Z,8.55
2022-12-04T11:45:19.220Z,12.35
2022-12-04T11:47:58.040Z,24.98
2022-12-04T11:51:00.313Z,21.73
2022-12-04T11:54:00.348Z,19.25
2022-12-04T11:56:36.036Z,10.48
2022-12-04T11:59:54.653Z,11.02
2022-12-04T12:02:47.124Z,23.38
2022-12-04T12:05:58.121Z,10.18
2022-12-04T12:08:54.173Z,39.05
2022-12-04T12:11:39.253Z,8.65
2022-12-04T12:14:29.380Z,7.43
2022-12-04T12:17:39.600Z,11.30
2022-12-04T12:20:20.303Z,7.13
2022-12-04T12:23:18.261Z,9.07
2022-12-04T12:26:14.742Z,11.52
2022-12-04T12:29:19.398Z,22.60
2022-12-04T12:32:19.774Z,18.67
2022-12-04T12:34:48.504Z,18.50
2022-12-04T12:37:54.793Z,19.25
2022-12-04T12:40:54.477Z,14.40
2022-12-04T12:43:33.728Z,10.15
2022-12-04T12:46:13.163Z,12.40
2022-12-04T12:49:02.069Z,12.18
2022-12-04T12:52:05.712Z,32.65
2022-12-04T12:55:20.412Z,17.63
2022-12-04T12:58:29.574Z,15.57
2022-12-04T13:01:06.254Z,9.82
2022-12-04T13:04:19.849Z,10.43
2022-12-04T13:06:53.535Z,16.23
2022-12-04T13:09:34.058Z,9.43
2022-12-04T13:12:12.097Z,17.80
2022-12-04T13:14:43.562Z,11.65
2022-12-04T13:17:25.672Z,21.85
2022-12-04T13:19:57.830Z,18.15
2022-12-04T13:23:02.002Z,11.57
2022-12-04T13:26:20.230Z,10.45
2022-12-04T13:29:13.882Z,21.33
2022-12-04T13:32:01.584Z,13.10
2022-12-04T13:34:55.169Z,13.27
2022-12-04T13:38:03.934Z,13.93
2022-12-04T13:40:41.603Z,12.27
2022-12-04T13:43:47.746Z,13.98
2022-12-04T13:46:38.326Z,20.70
2022-12-04T13:49:42.478Z,9.43
2022-12-04T13:52:41.024Z,15.90
2022-12-04T13:55:24.893Z,20.08
2022-12-04T13:57:59.294Z,18.70
2022-12-04T14:00:40.140Z,13.43
2022-12-04T14:03:26.414Z,13.57
2022-12-04T14:05:55.072Z,24.33
2022-12-04T14:08:26.661Z,16.38
2022-12-04T14:11:06.106Z,16.20
2022-12-04T14:13:55.314Z,18.52
2022-12-04T14:16:41.147Z,14.65
2022-12-04T14:19:25.256Z,13.00
2022-12-04T14:21:54.529Z,18.10
2022-12-04T14:24:37.717Z,18.92
2022-12-04T14:27:46.780Z,18.42
2022-12-04T14:30:36.817Z,12.27
2022-12-04T14:33:20.887Z,18.17
2022-12-04T14:36:03.278Z,12.02
2022-12-04T14:38:30.573Z,26.13
2022-12-04T14:40:58.748Z,20.98
2022-12-04T14:43:38.186Z,12.50
2022-12-04T14:46:37.267Z,20.95
2022-12-04T14:49:45.657Z,12.75
2022-12-04T14:52:24.766Z,27.38
2022-12-04T14:55:06.957Z,16.20
2022-12-04T14:57:59.393Z,11.63
2022-12-04T15:00:27.044Z,16.05
2022-12-04T15:02:59.957Z,17.55
2022-12-04T15:05:30.313Z,21.25
2022-12-04T15:08:01.631Z,9.10
2022-12-04T15:13:32.926Z,14.32
2022-12-04T15:16:23.467Z,14.18
2022-12-04T15:18:59.108Z,16.45
2022-12-04T15:21:37.429Z,12.65
2022-12-04T15:24:19.675Z,15.50
2022-12-04T15:26:48.740Z,13.68
2022-12-04T15:29:22.545Z,9.10
2022-12-04T15:31:56.977Z,16.65
2022-12-04T15:34:44.093Z,9.65
2022-12-04T15:37:26.587Z,20.65
2022-12-04T15:39:54.927Z,14.10
2022-12-04T15:42:31.113Z,14.82
2022-12-04T15:45:05.754Z,13.48
2022-12-04T15:47:38.947Z,14.40
2022-12-04T15:50:32.318Z,16.13
2022-12-04T15:53:28.310Z,17.50
2022-12-04T15:56:04.996Z,13.05
2022-12-04T15:58:34.543Z,12.00
2022-12-04T16:01:08.145Z,20.33
2022-12-04T16:03:45.829Z,18.65
2022-12-04T16:06:22.489Z,17.70
2022-12-04T16:08:55.409Z,16.90
2022-12-04T16:11:29.135Z,22.95
2022-12-04T16:14:28.728Z,17.88
2022-12-04T16:17:05.533Z,16.67
2022-12-04T16:19:36.387Z,14.75
2022-12-04T16:22:13.284Z,24.63
2022-12-04T16:24:40.604Z,24.85
2022-12-04T16:27:12.998Z,12.80
2022-12-04T16:29:40.172Z,31.17
2022-12-04T16:32:09.493Z,18.20
2022-12-04T16:34:37.543Z,14.40
2022-12-04T16:37:12.602Z,13.07
2022-12-04T16:39:41.561Z,10.50
2022-12-04T16:42:20.700Z,12.52
2022-12-04T16:44:48.423Z,13.80
2022-12-04T16:47:15.714Z,26.63
2022-12-04T16:49:44.297Z,15.77
2022-12-04T16:52:12.252Z,13.13
2022-12-04T16:54:40.191Z,13.45
2022-12-04T16:57:08.694Z,12.77
2022-12-04T16:59:36.273Z,22.45
2022-12-04T17:02:07.135Z,21.23
2022-12-04T17:04:34.529Z,15.52
2022-12-04T17:07:01.610Z,14.93
2022-12-04T17:09:28.714Z,10.02
2022-12-04T17:11:55.750Z,14.82
2022-12-04T17:14:22.862Z,17.80
2022-12-04T17:16:49.941Z,17.20
2022-12-04T17:19:17.530Z,17.48
2022-12-04T17:21:45.686Z,15.15
2022-12-04T17:24:12.669Z,20.60
2022-12-04T17:26:39.677Z,22.05
2022-12-04T17:29:06.809Z,14.73
2022-12-04T17:31:33.848Z,19.15
2022-12-04T17:34:01.015Z,18.45
2022-12-04T17:36:28.172Z,27.45
2022-12-04T17:39:01.741Z,15.07
2022-12-04T17:41:29.746Z,18.67
2022-12-04T17:43:59.567Z,15.88
2022-12-04T17:46:26.890Z,14.55
2022-12-04T17:48:57.073Z,15.73
2022-12-04T17:51:25.339Z,14.57
2022-12-04T17:53:52.567Z,15.00
2022-12-04T17:56:22.384Z,11.80
2022-12-04T17:58:50.506Z,15.10
2022-12-04T18:01:23.066Z,14.60
2022-12-04T18:03:55.211Z,25.10
2022-12-04T18:06:28.639Z,15.00
2022-12-04T18:08:56.090Z,16.52
2022-12-04T18:11:25.794Z,18.52
2022-12-04T18:14:03.102Z,13.98
2022-12-04T18:16:34.397Z,17.17
2022-12-04T18:19:02.822Z,13.98
2022-12-04T18:21:32.237Z,13.98
2022-12-04T18:24:02.968Z,18.20
2022-12-04T18:26:36.358Z,11.00
2022-12-04T18:29:04.156Z,14.35
2022-12-04T18:31:31.407Z,13.90
2022-12-04T18:33:58.800Z,11.55
2022-12-04T18:36:28.589Z,14.82
2022-12-04T18:39:01.791Z,10.60
2022-12-04T18:41:30.264Z,16.25
2022-12-04T18:43:58.149Z,15.50
2022-12-04T18:46:26.401Z,16.02
2022-12-04T18:48:54.956Z,14.38
2022-12-04T18:51:33.977Z,16.45
2022-12-04T18:54:03.811Z,20.70
2022-12-04T18:56:32.668Z,14.52
2022-12-04T18:59:02.531Z,13.80
2022-12-04T19:01:31.347Z,11.25
2022-12-04T19:04:01.578Z,20.17
2022-12-04T19:06:34.042Z,10.00
2022-12-04T19:09:04.595Z,12.90
2022-12-04T19:11:32.222Z,12.13
2022-12-04T19:14:00.204Z,12.00
2022-12-04T19:16:28.048Z,15.95
2022-12-04T19:18:56.430Z,15.70
2022-12-04T19:21:24.038Z,11.45
2022-12-04T19:23:58.398Z,12.43
2022-12-04T19:26:30.979Z,13.77
2022-12-04T19:28:58.427Z,11.68
2022-12-04T19:31:28.972Z,15.10
2022-12-04T19:33:57.914Z,10.82
2022-12-04T19:36:29.491Z,15.48
2022-12-04T19:39:00.481Z,11.88
2022-12-04T19:41:37.455Z,22.73
2022-12-04T19:44:26.021Z,17.30
2022-12-04T19:46:52.019Z,13.77
2022-12-04T19:49:19.200Z,12.05
2022-12-04T19:51:47.864Z,15.75
2022-12-04T19:54:15.659Z,18.25
2022-12-04T19:56:46.091Z,12.32
2022-12-04T19:59:13.256Z,13.90
2022-12-04T20:01:40.402Z,13.10
2022-12-04T20:04:09.253Z,13.45
2022-12-04T20:06:46.491Z,13.50
2022-12-04T20:09:21.682Z,10.30
2022-12-04T20:11:49.219Z,16.67
2022-12-04T20:14:16.331Z,14.10
2022-12-04T20:16:43.731Z,15.38
2022-12-04T20:19:14.889Z,10.30
2022-12-04T20:21:42.263Z,14.18
2022-12-04T20:24:13.134Z,17.05
2022-12-04T20:26:41.825Z,13.25
2022-12-04T20:29:13.356Z,15.18
2022-12-04T20:31:44.556Z,15.15
2022-12-04T20:34:17.488Z,13.48
2022-12-04T20:36:47.341Z,13.70
2022-12-04T20:39:15.260Z,12.57
2022-12-04T20:41:42.520Z,12.93
2022-12-04T20:44:15.673Z,16.60
2022-12-04T20:46:43.156Z,12.63
2022-12-04T20:49:20.590Z,11.52
2022-12-04T20:51:49.099Z,14.85
2022-12-04T20:54:18.825Z,13.10
2022-12-04T20:56:49.196Z,13.30
2022-12-04T20:59:18.407Z,15.17
2022-12-04T21:01:45.917Z,12.57
2022-12-04T21:04:13.300Z,13.10
2022-12-04T21:06:41.414Z,12.68
2022-12-04T21:09:12.171Z,13.93
2022-12-04T21:11:41.790Z,9.73
2022-12-04T21:14:32.887Z,9.95
2022-12-04T21:17:00.669Z,9.82
2022-12-04T21:19:28.004Z,14.13
2022-12-04T21:21:55.227Z,12.10
2022-12-04T21:24:24.188Z,13.13
2022-12-04T21:26:51.234Z,12.15
2022-12-04T21:29:18.319Z,14.45
2022-12-04T21:31:45.671Z,12.82
2022-12-04T21:34:15.127Z,10.07
2022-12-04T21:36:42.941Z,12.48
2022-12-04T21:39:10.979Z,9.73
2022-12-04T21:41:56.711Z,13.57
2022-12-04T21:44:23.664Z,9.55
2022-12-04T21:46:50.710Z,10.90
2022-12-04T21:49:18.735Z,8.55
2022-12-04T21:51:57.240Z,13.82
2022-12-04T21:54:26.683Z,9.68
2022-12-04T21:56:54.014Z,9.57
2022-12-04T21:59:21.061Z,7.95
2022-12-04T22:01:48.069Z,12.13
2022-12-04T22:04:15.219Z,8.57
2022-12-04T22:06:42.357Z,13.55
2022-12-04T22:09:11.004Z,10.90
2022-12-04T22:11:39.314Z,8.52
2022-12-04T22:14:06.335Z,8.85
2022-12-04T22:16:39.883Z,9.93
2022-12-04T22:19:08.969Z,7.68
2022-12-04T22:21:36.250Z,7.63
2022-12-04T22:24:04.559Z,8.35
2022-12-04T22:26:32.157Z,9.70
2022-12-04T22:28:59.669Z,8.93
2022-12-04T22:31:28.101Z,10.23
2022-12-04T22:33:57.242Z,8.77
2022-12-04T22:36:27.346Z,11.40
2022-12-04T22:39:11.138Z,10.85
2022-12-04T22:41:39.033Z,10.13
2022-12-04T22:44:06.272Z,10.60
2022-12-04T22:46:34.052Z,11.98
2022-12-04T22:49:01.155Z,13.50
2022-12-04T22:51:29.036Z,12.15
2022-12-04T22:53:58.190Z,8.80
2022-12-04T22:56:31.651Z,9.35
2022-12-04T22:58:59.540Z,11.13
2022-12-04T23:01:32.091Z,9.80
2022-12-04T23:04:00.291Z,14.02
2022-12-04T23:06:29.409Z,8.57
2022-12-04T23:08:59.224Z,10.25
2022-12-04T23:11:27.770Z,9.80
2022-12-04T23:13:57.315Z,13.00
2022-12-04T23:16:25.133Z,11.98
2022-12-04T23:18:53.209Z,9.45
2022-12-04T23:21:21.756Z,13.43
2022-12-04T23:23:51.167Z,8.88
2022-12-04T23:26:21.142Z,8.55
2022-12-04T23:28:48.200Z,11.15
2022-12-04T23:31:16.174Z,8.27
2022-12-04T23:33:43.432Z,9.48
2022-12-04T23:36:12.246Z,9.05
2022-12-04T23:38:41.223Z,11.90
2022-12-04T23:41:17.211Z,10.60
2022-12-04T23:43:45.084Z,9.52
2022-12-04T23:46:14.220Z,11.65
2022-12-04T23:48:42.931Z,8.90
2022-12-04T23:51:11.639Z,10.80
2022-12-04T23:53:39.127Z,8.32
2022-12-04T23:56:17.717Z,18.95
2022-12-04T23:58:46.304Z,10.85
